sensor_id;sensor_type;location;lat;lon;timestamp;temperature;humidity
75049;DHT22;63803;53.120;8.764;2022-12-01T00:00:52;21.70;51.60
75049;DHT22;63803;53.120;8.764;2022-12-01T00:03:18;21.70;51.00
75049;DHT22;63803;53.120;8.764;2022-12-01T00:05:44;21.70;50.90
75049;DHT22;63803;53.120;8.764;2022-12-01T00:08:10;21.70;50.80
75049;DHT22;63803;53.120;8.764;2022-12-01T00:10:36;21.60;50.80
75049;DHT22;63803;53.120;8.764;2022-12-01T00:13:04;21.70;50.70
75049;DHT22;63803;53.120;8.764;2022-12-01T00:15:35;21.60;50.70
75049;DHT22;63803;53.120;8.764;2022-12-01T00:18:03;21.70;50.80
75049;DHT22;63803;53.120;8.764;2022-12-01T00:20:31;21.60;50.70
75049;DHT22;63803;53.120;8.764;2022-12-01T00:22:58;21.60;50.70
75049;DHT22;63803;53.120;8.764;2022-12-01T00:25:24;21.60;50.70
75049;DHT22;63803;53.120;8.764;2022-12-01T00:27:51;21.70;50.70
75049;DHT22;63803;53.120;8.764;2022-12-01T00:30:19;22.90;51.80
75049;DHT22;63803;53.120;8.764;2022-12-01T00:32:45;21.60;50.60
75049;DHT22;63803;53.120;8.764;2022-12-01T00:35:12;21.60;50.60
75049;DHT22;63803;53.120;8.764;2022-12-01T00:37:38;21.60;50.60
75049;DHT22;63803;53.120;8.764;2022-12-01T00:40:05;21.60;50.60
75049;DHT22;63803;53.120;8.764;2022-12-01T00:42:32;21.60;50.50
75049;DHT22;63803;53.120;8.764;2022-12-01T00:44:58;21.60;50.50
75049;DHT22;63803;53.120;8.764;2022-12-01T00:47:24;21.60;50.40
75049;DHT22;63803;53.120;8.764;2022-12-01T00:49:50;21.60;50.40
75049;DHT22;63803;53.120;8.764;2022-12-01T00:52:18;21.60;50.40
75049;DHT22;63803;53.120;8.764;2022-12-01T00:54:44;21.60;50.40
75049;DHT22;63803;53.120;8.764;2022-12-01T00:57:11;21.60;50.40
75049;DHT22;63803;53.120;8.764;2022-12-01T00:59:38;21.60;50.30
75049;DHT22;63803;53.120;8.764;2022-12-01T01:02:05;21.60;50.30
75049;DHT22;63803;53.120;8.764;2022-12-01T01:04:33;21.60;50.30
75049;DHT22;63803;53.120;8.764;2022-12-01T01:06:59;23.20;51.80
75049;DHT22;63803;53.120;8.764;2022-12-01T01:09:25;21.60;50.20
75049;DHT22;63803;53.120;8.764;2022-12-01T01:11:52;21.60;50.20
75049;DHT22;63803;53.120;8.764;2022-12-01T01:14:19;21.60;50.20
75049;DHT22;63803;53.120;8.764;2022-12-01T01:16:45;21.60;50.20
75049;DHT22;63803;53.120;8.764;2022-12-01T01:19:11;21.60;50.20
75049;DHT22;63803;53.120;8.764;2022-12-01T01:21:38;21.60;50.20
75049;DHT22;63803;53.120;8.764;2022-12-01T01:24:04;21.60;50.20
75049;DHT22;63803;53.120;8.764;2022-12-01T01:26:31;21.60;50.10
75049;DHT22;63803;53.120;8.764;2022-12-01T01:28:59;21.60;50.10
75049;DHT22;63803;53.120;8.764;2022-12-01T01:31:27;21.60;50.10
75049;DHT22;63803;53.120;8.764;2022-12-01T01:33:54;22.90;50.80
75049;DHT22;63803;53.120;8.764;2022-12-01T01:36:21;21.60;50.00
75049;DHT22;63803;53.120;8.764;2022-12-01T01:38:48;21.60;50.10
75049;DHT22;63803;53.120;8.764;2022-12-01T01:41:19;21.60;50.00
75049;DHT22;63803;53.120;8.764;2022-12-01T01:48:58;21.60;50.00
75049;DHT22;63803;53.120;8.764;2022-12-01T01:51:48;20.30;49.80
75049;DHT22;63803;53.120;8.764;2022-12-01T01:54:45;21.60;49.90
75049;DHT22;63803;53.120;8.764;2022-12-01T01:57:15;20.80;50.20
75049;DHT22;63803;53.120;8.764;2022-12-01T01:59:48;21.20;50.30
75049;DHT22;63803;53.120;8.764;2022-12-01T02:02:15;22.40;51.00
75049;DHT22;63803;53.120;8.764;2022-12-01T02:04:45;21.60;49.90
75049;DHT22;63803;53.120;8.764;2022-12-01T02:07:12;21.40;49.70
75049;DHT22;63803;53.120;8.764;2022-12-01T02:09:39;21.60;49.80
75049;DHT22;63803;53.120;8.764;2022-12-01T02:34:54;21.60;50.80
75049;DHT22;63803;53.120;8.764;2022-12-01T02:37:34;21.60;50.70
75049;DHT22;63803;53.120;8.764;2022-12-01T02:40:21;21.60;50.20
75049;DHT22;63803;53.120;8.764;2022-12-01T02:45:57;21.60;50.60
75049;DHT22;63803;53.120;8.764;2022-12-01T02:48:30;20.40;50.70
75049;DHT22;63803;53.120;8.764;2022-12-01T02:51:00;21.60;50.80
75049;DHT22;63803;53.120;8.764;2022-12-01T02:53:28;21.60;50.70
75049;DHT22;63803;53.120;8.764;2022-12-01T02:55:57;21.60;50.70
75049;DHT22;63803;53.120;8.764;2022-12-01T02:58:24;21.60;50.60
75049;DHT22;63803;53.120;8.764;2022-12-01T03:01:06;21.60;50.70
75049;DHT22;63803;53.120;8.764;2022-12-01T03:04:44;21.70;50.80
75049;DHT22;63803;53.120;8.764;2022-12-01T03:10:06;21.70;50.80
75049;DHT22;63803;53.120;8.764;2022-12-01T03:15:56;21.70;50.70
75049;DHT22;63803;53.120;8.764;2022-12-01T03:23:34;21.70;50.70
75049;DHT22;63803;53.120;8.764;2022-12-01T03:26:03;21.70;50.60
75049;DHT22;63803;53.120;8.764;2022-12-01T03:28:43;21.70;51.20
75049;DHT22;63803;53.120;8.764;2022-12-01T03:31:16;23.30;51.40
75049;DHT22;63803;53.120;8.764;2022-12-01T03:33:49;21.70;50.50
75049;DHT22;63803;53.120;8.764;2022-12-01T03:36:27;21.70;50.50
75049;DHT22;63803;53.120;8.764;2022-12-01T03:38:58;21.70;50.50
75049;DHT22;63803;53.120;8.764;2022-12-01T03:41:36;21.70;50.60
75049;DHT22;63803;53.120;8.764;2022-12-01T03:44:11;21.70;50.60
75049;DHT22;63803;53.120;8.764;2022-12-01T03:46:59;21.70;50.70
75049;DHT22;63803;53.120;8.764;2022-12-01T03:49:26;21.70;50.60
75049;DHT22;63803;53.120;8.764;2022-12-01T03:57:14;21.70;50.60
75049;DHT22;63803;53.120;8.764;2022-12-01T03:59:41;21.70;50.50
75049;DHT22;63803;53.120;8.764;2022-12-01T04:02:08;21.70;50.50
75049;DHT22;63803;53.120;8.764;2022-12-01T04:04:34;21.70;50.50
75049;DHT22;63803;53.120;8.764;2022-12-01T04:07:00;21.70;50.40
75049;DHT22;63803;53.120;8.764;2022-12-01T04:09:26;21.70;50.90
75049;DHT22;63803;53.120;8.764;2022-12-01T04:11:53;21.80;50.70
75049;DHT22;63803;53.120;8.764;2022-12-01T04:14:37;21.20;50.90
75049;DHT22;63803;53.120;8.764;2022-12-01T04:17:03;21.30;51.00
75049;DHT22;63803;53.120;8.764;2022-12-01T04:19:29;21.70;50.60
75049;DHT22;63803;53.120;8.764;2022-12-01T04:21:55;21.70;50.40
75049;DHT22;63803;53.120;8.764;2022-12-01T04:24:21;21.70;50.40
75049;DHT22;63803;53.120;8.764;2022-12-01T04:26:47;21.10;50.70
75049;DHT22;63803;53.120;8.764;2022-12-01T04:29:13;21.70;50.50
75049;DHT22;63803;53.120;8.764;2022-12-01T04:31:39;21.70;50.50
75049;DHT22;63803;53.120;8.764;2022-12-01T04:34:06;21.80;50.70
75049;DHT22;63803;53.120;8.764;2022-12-01T04:36:33;21.80;50.80
75049;DHT22;63803;53.120;8.764;2022-12-01T04:39:00;21.60;51.10
75049;DHT22;63803;53.120;8.764;2022-12-01T04:41:26;21.70;50.50
75049;DHT22;63803;53.120;8.764;2022-12-01T04:43:53;21.70;50.70
75049;DHT22;63803;53.120;8.764;2022-12-01T04:46:19;21.70;50.50
75049;DHT22;63803;53.120;8.764;2022-12-01T04:48:45;21.70;50.40
75049;DHT22;63803;53.120;8.764;2022-12-01T04:51:11;21.70;50.30
75049;DHT22;63803;53.120;8.764;2022-12-01T04:53:37;21.70;50.30
75049;DHT22;63803;53.120;8.764;2022-12-01T04:56:04;20.40;50.30
75049;DHT22;63803;53.120;8.764;2022-12-01T04:58:32;21.70;50.50
75049;DHT22;63803;53.120;8.764;2022-12-01T05:01:10;21.70;50.70
75049;DHT22;63803;53.120;8.764;2022-12-01T05:03:41;21.80;51.30
75049;DHT22;63803;53.120;8.764;2022-12-01T05:08:35;21.70;50.60
75049;DHT22;63803;53.120;8.764;2022-12-01T05:11:02;21.70;50.50
75049;DHT22;63803;53.120;8.764;2022-12-01T05:13:29;21.70;50.20
75049;DHT22;63803;53.120;8.764;2022-12-01T05:16:10;21.70;50.30
75049;DHT22;63803;53.120;8.764;2022-12-01T05:18:36;21.70;50.10
75049;DHT22;63803;53.120;8.764;2022-12-01T05:21:03;21.70;50.20
75049;DHT22;63803;53.120;8.764;2022-12-01T05:23:33;21.70;50.10
75049;DHT22;63803;53.120;8.764;2022-12-01T05:25:59;21.70;50.20
75049;DHT22;63803;53.120;8.764;2022-12-01T05:28:26;21.70;50.20
75049;DHT22;63803;53.120;8.764;2022-12-01T05:30:53;20.90;50.30
75049;DHT22;63803;53.120;8.764;2022-12-01T05:33:23;21.70;50.00
75049;DHT22;63803;53.120;8.764;2022-12-01T05:35:50;21.70;50.10
75049;DHT22;63803;53.120;8.764;2022-12-01T05:38:17;21.70;50.10
75049;DHT22;63803;53.120;8.764;2022-12-01T05:40:49;20.80;50.30
75049;DHT22;63803;53.120;8.764;2022-12-01T05:43:15;21.70;50.10
75049;DHT22;63803;53.120;8.764;2022-12-01T05:45:41;21.70;50.10
75049;DHT22;63803;53.120;8.764;2022-12-01T05:48:07;21.30;50.90
75049;DHT22;63803;53.120;8.764;2022-12-01T05:50:33;21.00;50.60
75049;DHT22;63803;53.120;8.764;2022-12-01T05:53:03;21.70;50.40
75049;DHT22;63803;53.120;8.764;2022-12-01T05:55:29;21.00;50.50
75049;DHT22;63803;53.120;8.764;2022-12-01T05:57:57;21.80;50.30
75049;DHT22;63803;53.120;8.764;2022-12-01T06:00:23;21.70;50.20
75049;DHT22;63803;53.120;8.764;2022-12-01T06:02:49;21.50;50.70
75049;DHT22;63803;53.120;8.764;2022-12-01T06:05:14;21.70;50.00
75049;DHT22;63803;53.120;8.764;2022-12-01T06:07:41;21.70;50.00
75049;DHT22;63803;53.120;8.764;2022-12-01T06:10:08;21.70;50.00
75049;DHT22;63803;53.120;8.764;2022-12-01T06:12:35;22.70;51.10
75049;DHT22;63803;53.120;8.764;2022-12-01T06:15:01;21.70;50.10
75049;DHT22;63803;53.120;8.764;2022-12-01T06:17:27;21.70;50.20
75049;DHT22;63803;53.120;8.764;2022-12-01T06:19:53;21.70;50.00
75049;DHT22;63803;53.120;8.764;2022-12-01T06:22:19;21.70;50.00
75049;DHT22;63803;53.120;8.764;2022-12-01T06:24:45;21.70;50.10
75049;DHT22;63803;53.120;8.764;2022-12-01T06:27:11;21.70;50.10
75049;DHT22;63803;53.120;8.764;2022-12-01T06:29:37;21.70;50.20
75049;DHT22;63803;53.120;8.764;2022-12-01T06:32:03;21.70;50.10
75049;DHT22;63803;53.120;8.764;2022-12-01T06:34:29;21.70;50.00
75049;DHT22;63803;53.120;8.764;2022-12-01T06:36:55;19.90;49.70
75049;DHT22;63803;53.120;8.764;2022-12-01T06:39:21;21.70;50.20
75049;DHT22;63803;53.120;8.764;2022-12-01T06:41:47;21.70;50.10
75049;DHT22;63803;53.120;8.764;2022-12-01T06:44:13;20.50;50.10
75049;DHT22;63803;53.120;8.764;2022-12-01T06:46:38;21.80;50.20
75049;DHT22;63803;53.120;8.764;2022-12-01T06:49:05;21.50;50.60
75049;DHT22;63803;53.120;8.764;2022-12-01T06:51:31;21.70;50.10
75049;DHT22;63803;53.120;8.764;2022-12-01T06:53:58;21.70;50.10
75049;DHT22;63803;53.120;8.764;2022-12-01T06:56:24;21.80;50.70
75049;DHT22;63803;53.120;8.764;2022-12-01T06:58:51;21.70;50.00
75049;DHT22;63803;53.120;8.764;2022-12-01T07:01:17;21.70;50.00
75049;DHT22;63803;53.120;8.764;2022-12-01T07:03:50;21.70;50.10
75049;DHT22;63803;53.120;8.764;2022-12-01T07:06:16;21.70;50.30
75049;DHT22;63803;53.120;8.764;2022-12-01T07:08:43;21.80;50.30
75049;DHT22;63803;53.120;8.764;2022-12-01T07:11:12;21.80;50.20
75049;DHT22;63803;53.120;8.764;2022-12-01T07:13:39;22.00;50.90
75049;DHT22;63803;53.120;8.764;2022-12-01T07:16:06;21.80;50.20
75049;DHT22;63803;53.120;8.764;2022-12-01T07:18:33;21.00;50.30
75049;DHT22;63803;53.120;8.764;2022-12-01T07:21:01;21.80;50.20
75049;DHT22;63803;53.120;8.764;2022-12-01T07:23:27;21.80;50.30
75049;DHT22;63803;53.120;8.764;2022-12-01T07:28:26;21.80;50.20
75049;DHT22;63803;53.120;8.764;2022-12-01T07:30:52;21.80;50.20
75049;DHT22;63803;53.120;8.764;2022-12-01T07:33:18;21.80;50.80
75049;DHT22;63803;53.120;8.764;2022-12-01T07:35:44;21.80;50.30
75049;DHT22;63803;53.120;8.764;2022-12-01T07:38:10;21.40;50.70
75049;DHT22;63803;53.120;8.764;2022-12-01T07:40:36;21.80;50.20
75049;DHT22;63803;53.120;8.764;2022-12-01T07:43:02;20.80;50.20
75049;DHT22;63803;53.120;8.764;2022-12-01T07:45:28;21.70;50.20
75049;DHT22;63803;53.120;8.764;2022-12-01T07:47:54;21.70;50.20
75049;DHT22;63803;53.120;8.764;2022-12-01T07:50:20;23.20;51.50
75049;DHT22;63803;53.120;8.764;2022-12-01T07:52:49;21.70;50.20
75049;DHT22;63803;53.120;8.764;2022-12-01T07:55:16;21.70;50.20
75049;DHT22;63803;53.120;8.764;2022-12-01T07:57:42;21.60;50.70
75049;DHT22;63803;53.120;8.764;2022-12-01T08:00:08;21.70;50.20
75049;DHT22;63803;53.120;8.764;2022-12-01T08:02:34;21.00;50.40
75049;DHT22;63803;53.120;8.764;2022-12-01T08:05:00;21.70;50.20
75049;DHT22;63803;53.120;8.764;2022-12-01T08:07:26;22.60;51.20
75049;DHT22;63803;53.120;8.764;2022-12-01T08:09:51;23.40;51.60
75049;DHT22;63803;53.120;8.764;2022-12-01T08:12:17;21.70;50.20
75049;DHT22;63803;53.120;8.764;2022-12-01T08:14:43;21.70;50.20
75049;DHT22;63803;53.120;8.764;2022-12-01T08:17:09;21.70;50.10
75049;DHT22;63803;53.120;8.764;2022-12-01T08:19:35;22.50;51.30
75049;DHT22;63803;53.120;8.764;2022-12-01T08:22:01;21.70;50.20
75049;DHT22;63803;53.120;8.764;2022-12-01T08:24:27;21.70;50.20
75049;DHT22;63803;53.120;8.764;2022-12-01T08:26:53;21.80;50.20
75049;DHT22;63803;53.120;8.764;2022-12-01T08:29:19;21.70;50.20
75049;DHT22;63803;53.120;8.764;2022-12-01T08:31:45;21.80;50.20
75049;DHT22;63803;53.120;8.764;2022-12-01T08:34:11;21.70;50.20
75049;DHT22;63803;53.120;8.764;2022-12-01T08:36:36;21.80;50.60
75049;DHT22;63803;53.120;8.764;2022-12-01T08:39:03;21.70;50.50
75049;DHT22;63803;53.120;8.764;2022-12-01T08:41:29;21.70;50.70
75049;DHT22;63803;53.120;8.764;2022-12-01T08:43:56;21.80;50.60
75049;DHT22;63803;53.120;8.764;2022-12-01T08:46:24;21.90;51.50
75049;DHT22;63803;53.120;8.764;2022-12-01T08:48:50;21.90;50.80
75049;DHT22;63803;53.120;8.764;2022-12-01T08:51:17;21.90;50.50
75049;DHT22;63803;53.120;8.764;2022-12-01T08:53:46;21.90;52.90
75049;DHT22;63803;53.120;8.764;2022-12-01T08:56:16;21.90;54.20
75049;DHT22;63803;53.120;8.764;2022-12-01T08:58:42;21.90;53.50
75049;DHT22;63803;53.120;8.764;2022-12-01T09:01:10;21.90;53.30
75049;DHT22;63803;53.120;8.764;2022-12-01T09:03:38;21.80;53.40
75049;DHT22;63803;53.120;8.764;2022-12-01T09:06:09;21.80;53.30
75049;DHT22;63803;53.120;8.764;2022-12-01T09:08:36;21.80;53.00
75049;DHT22;63803;53.120;8.764;2022-12-01T09:11:06;21.80;53.10
75049;DHT22;63803;53.120;8.764;2022-12-01T09:13:34;23.80;54.10
75049;DHT22;63803;53.120;8.764;2022-12-01T09:16:06;21.80;53.00
75049;DHT22;63803;53.120;8.764;2022-12-01T09:18:33;21.80;53.00
75049;DHT22;63803;53.120;8.764;2022-12-01T09:21:00;21.80;52.90
75049;DHT22;63803;53.120;8.764;2022-12-01T09:23:33;21.90;52.90
75049;DHT22;63803;53.120;8.764;2022-12-01T09:25:59;21.80;52.90
75049;DHT22;63803;53.120;8.764;2022-12-01T09:28:25;21.80;52.80
75049;DHT22;63803;53.120;8.764;2022-12-01T09:30:51;21.70;53.10
75049;DHT22;63803;53.120;8.764;2022-12-01T09:33:17;21.80;52.60
75049;DHT22;63803;53.120;8.764;2022-12-01T09:35:43;21.80;52.50
75049;DHT22;63803;53.120;8.764;2022-12-01T09:38:09;22.30;53.30
75049;DHT22;63803;53.120;8.764;2022-12-01T09:40:38;21.90;52.50
75049;DHT22;63803;53.120;8.764;2022-12-01T09:43:12;21.80;52.90
75049;DHT22;63803;53.120;8.764;2022-12-01T09:45:41;21.80;52.30
75049;DHT22;63803;53.120;8.764;2022-12-01T09:48:18;21.80;52.20
75049;DHT22;63803;53.120;8.764;2022-12-01T09:50:46;21.80;52.20
75049;DHT22;63803;53.120;8.764;2022-12-01T09:53:17;21.90;52.10
75049;DHT22;63803;53.120;8.764;2022-12-01T09:55:45;21.90;52.20
75049;DHT22;63803;53.120;8.764;2022-12-01T09:58:17;22.00;52.10
75049;DHT22;63803;53.120;8.764;2022-12-01T10:00:45;20.70;51.20
75049;DHT22;63803;53.120;8.764;2022-12-01T10:03:32;21.90;52.00
75049;DHT22;63803;53.120;8.764;2022-12-01T10:06:08;21.90;52.00
75049;DHT22;63803;53.120;8.764;2022-12-01T10:08:41;21.80;52.00
75049;DHT22;63803;53.120;8.764;2022-12-01T10:11:32;21.80;51.90
75049;DHT22;63803;53.120;8.764;2022-12-01T10:13:59;21.00;52.00
75049;DHT22;63803;53.120;8.764;2022-12-01T10:16:31;21.80;52.40
75049;DHT22;63803;53.120;8.764;2022-12-01T10:19:14;21.80;51.90
75049;DHT22;63803;53.120;8.764;2022-12-01T10:30:14;21.80;51.70
75049;DHT22;63803;53.120;8.764;2022-12-01T10:32:53;22.60;52.10
75049;DHT22;63803;53.120;8.764;2022-12-01T10:35:24;21.80;51.60
75049;DHT22;63803;53.120;8.764;2022-12-01T10:37:56;21.80;51.60
75049;DHT22;63803;53.120;8.764;2022-12-01T10:40:22;22.30;52.30
75049;DHT22;63803;53.120;8.764;2022-12-01T10:42:50;21.80;51.50
75049;DHT22;63803;53.120;8.764;2022-12-01T10:45:27;21.70;51.40
75049;DHT22;63803;53.120;8.764;2022-12-01T10:48:19;21.80;51.50
75049;DHT22;63803;53.120;8.764;2022-12-01T10:50:48;21.70;51.40
75049;DHT22;63803;53.120;8.764;2022-12-01T10:53:32;21.20;51.60
75049;DHT22;63803;53.120;8.764;2022-12-01T10:56:24;21.50;51.70
75049;DHT22;63803;53.120;8.764;2022-12-01T10:59:00;21.70;51.30
75049;DHT22;63803;53.120;8.764;2022-12-01T11:01:30;21.70;51.20
75049;DHT22;63803;53.120;8.764;2022-12-01T11:04:45;21.70;51.30
75049;DHT22;63803;53.120;8.764;2022-12-01T11:06:51;21.70;51.80
75049;DHT22;63803;53.120;8.764;2022-12-01T11:09:20;21.70;51.10
75049;DHT22;63803;53.120;8.764;2022-12-01T11:12:02;21.30;51.40
75049;DHT22;63803;53.120;8.764;2022-12-01T11:14:40;21.70;51.10
75049;DHT22;63803;53.120;8.764;2022-12-01T11:17:16;21.10;51.30
75049;DHT22;63803;53.120;8.764;2022-12-01T11:19:42;21.70;51.00
75049;DHT22;63803;53.120;8.764;2022-12-01T11:22:26;20.90;51.00
75049;DHT22;63803;53.120;8.764;2022-12-01T11:27:25;21.60;50.80
75049;DHT22;63803;53.120;8.764;2022-12-01T11:29:54;21.50;51.20
75049;DHT22;63803;53.120;8.764;2022-12-01T11:32:37;21.60;50.70
75049;DHT22;63803;53.120;8.764;2022-12-01T11:37:38;21.70;50.80
75049;DHT22;63803;53.120;8.764;2022-12-01T11:41:14;21.70;50.70
75049;DHT22;63803;53.120;8.764;2022-12-01T11:45:48;21.60;50.60
75049;DHT22;63803;53.120;8.764;2022-12-01T11:48:31;21.60;50.50
75049;DHT22;63803;53.120;8.764;2022-12-01T11:56:27;21.60;50.50
75049;DHT22;63803;53.120;8.764;2022-12-01T11:59:04;21.60;50.60
75049;DHT22;63803;53.120;8.764;2022-12-01T12:10:32;21.70;51.00
75049;DHT22;63803;53.120;8.764;2022-12-01T12:13:17;20.70;50.40
75049;DHT22;63803;53.120;8.764;2022-12-01T12:16:18;21.60;50.20
75049;DHT22;63803;53.120;8.764;2022-12-01T12:35:07;20.60;50.20
75049;DHT22;63803;53.120;8.764;2022-12-01T12:44:24;23.30;51.40
75049;DHT22;63803;53.120;8.764;2022-12-01T12:52:36;23.40;51.50
75049;DHT22;63803;53.120;8.764;2022-12-01T12:55:28;21.50;50.50
75049;DHT22;63803;53.120;8.764;2022-12-01T12:58:12;21.60;50.50
75049;DHT22;63803;53.120;8.764;2022-12-01T13:00:43;20.90;50.00
75049;DHT22;63803;53.120;8.764;2022-12-01T13:06:01;21.60;49.80
75049;DHT22;63803;53.120;8.764;2022-12-01T13:11:16;21.60;49.70
75049;DHT22;63803;53.120;8.764;2022-12-01T13:14:03;21.50;49.70
75049;DHT22;63803;53.120;8.764;2022-12-01T13:16:43;21.50;49.60
75049;DHT22;63803;53.120;8.764;2022-12-01T13:19:27;21.60;49.60
75049;DHT22;63803;53.120;8.764;2022-12-01T13:21:54;21.60;49.70
75049;DHT22;63803;53.120;8.764;2022-12-01T13:24:25;20.60;49.80
75049;DHT22;63803;53.120;8.764;2022-12-01T13:29:38;21.60;49.60
75049;DHT22;63803;53.120;8.764;2022-12-01T13:32:05;21.60;49.50
75049;DHT22;63803;53.120;8.764;2022-12-01T13:34:42;21.60;49.60
75049;DHT22;63803;53.120;8.764;2022-12-01T13:37:09;21.60;49.50
75049;DHT22;63803;53.120;8.764;2022-12-01T13:39:40;21.60;49.50
75049;DHT22;63803;53.120;8.764;2022-12-01T13:42:16;21.60;49.40
75049;DHT22;63803;53.120;8.764;2022-12-01T13:44:50;21.50;49.40
75049;DHT22;63803;53.120;8.764;2022-12-01T14:06:43;21.60;49.30
75049;DHT22;63803;53.120;8.764;2022-12-01T14:09:23;21.50;48.70
75049;DHT22;63803;53.120;8.764;2022-12-01T14:14:37;21.50;49.90
75049;DHT22;63803;53.120;8.764;2022-12-01T14:17:05;22.10;50.00
75049;DHT22;63803;53.120;8.764;2022-12-01T14:19:41;21.50;49.20
75049;DHT22;63803;53.120;8.764;2022-12-01T14:24:58;21.50;49.10
75049;DHT22;63803;53.120;8.764;2022-12-01T14:27:34;21.50;49.10
75049;DHT22;63803;53.120;8.764;2022-12-01T14:38:46;21.50;49.00
75049;DHT22;63803;53.120;8.764;2022-12-01T14:41:23;21.50;49.00
75049;DHT22;63803;53.120;8.764;2022-12-01T14:43:55;21.50;48.90
75049;DHT22;63803;53.120;8.764;2022-12-01T14:46:39;21.50;48.90
75049;DHT22;63803;53.120;8.764;2022-12-01T14:49:12;21.50;48.90
75049;DHT22;63803;53.120;8.764;2022-12-01T14:51:42;21.50;48.90
75049;DHT22;63803;53.120;8.764;2022-12-01T14:54:20;21.60;49.50
75049;DHT22;63803;53.120;8.764;2022-12-01T14:56:51;21.50;48.80
75049;DHT22;63803;53.120;8.764;2022-12-01T14:59:20;21.50;48.90
75049;DHT22;63803;53.120;8.764;2022-12-01T15:01:49;20.60;48.90
75049;DHT22;63803;53.120;8.764;2022-12-01T15:04:16;20.50;48.80
75049;DHT22;63803;53.120;8.764;2022-12-01T15:06:42;21.50;48.70
75049;DHT22;63803;53.120;8.764;2022-12-01T15:09:18;21.50;48.70
75049;DHT22;63803;53.120;8.764;2022-12-01T15:12:19;21.50;48.80
75049;DHT22;63803;53.120;8.764;2022-12-01T15:14:48;21.50;48.70
75049;DHT22;63803;53.120;8.764;2022-12-01T15:17:47;21.50;48.80
75049;DHT22;63803;53.120;8.764;2022-12-01T15:20:28;21.50;49.30
75049;DHT22;63803;53.120;8.764;2022-12-01T15:22:55;21.50;48.70
75049;DHT22;63803;53.120;8.764;2022-12-01T15:25:22;21.50;48.70
75049;DHT22;63803;53.120;8.764;2022-12-01T15:30:44;21.50;48.60
75049;DHT22;63803;53.120;8.764;2022-12-01T15:33:32;21.50;48.60
75049;DHT22;63803;53.120;8.764;2022-12-01T15:36:00;21.50;48.60
75049;DHT22;63803;53.120;8.764;2022-12-01T15:38:29;21.50;48.60
75049;DHT22;63803;53.120;8.764;2022-12-01T15:40:58;21.50;48.60
75049;DHT22;63803;53.120;8.764;2022-12-01T15:43:33;21.50;48.60
75049;DHT22;63803;53.120;8.764;2022-12-01T15:46:13;21.50;48.50
75049;DHT22;63803;53.120;8.764;2022-12-01T15:48:40;21.50;48.50
75049;DHT22;63803;53.120;8.764;2022-12-01T15:51:18;20.60;48.60
75049;DHT22;63803;53.120;8.764;2022-12-01T15:56:13;21.50;48.60
75049;DHT22;63803;53.120;8.764;2022-12-01T15:58:45;21.50;48.50
75049;DHT22;63803;53.120;8.764;2022-12-01T16:01:15;21.60;49.10
75049;DHT22;63803;53.120;8.764;2022-12-01T16:03:49;21.50;48.40
75049;DHT22;63803;53.120;8.764;2022-12-01T16:06:16;23.40;50.10
75049;DHT22;63803;53.120;8.764;2022-12-01T16:09:17;21.50;48.40
75049;DHT22;63803;53.120;8.764;2022-12-01T16:12:32;21.50;48.30
75049;DHT22;63803;53.120;8.764;2022-12-01T16:20:23;21.50;48.30
75049;DHT22;63803;53.120;8.764;2022-12-01T16:23:01;21.50;48.50
75049;DHT22;63803;53.120;8.764;2022-12-01T16:25:34;21.50;48.30
75049;DHT22;63803;53.120;8.764;2022-12-01T16:28:03;21.50;48.30
75049;DHT22;63803;53.120;8.764;2022-12-01T16:30:37;21.50;48.30
75049;DHT22;63803;53.120;8.764;2022-12-01T16:33:13;21.50;48.40
75049;DHT22;63803;53.120;8.764;2022-12-01T16:35:39;21.50;48.20
75049;DHT22;63803;53.120;8.764;2022-12-01T16:38:14;21.50;48.20
75049;DHT22;63803;53.120;8.764;2022-12-01T16:40:44;21.50;49.10
75049;DHT22;63803;53.120;8.764;2022-12-01T16:43:15;21.50;48.70
75049;DHT22;63803;53.120;8.764;2022-12-01T16:45:42;21.60;48.90
75049;DHT22;63803;53.120;8.764;2022-12-01T16:48:09;21.60;49.50
75049;DHT22;63803;53.120;8.764;2022-12-01T16:50:35;21.40;50.40
75049;DHT22;63803;53.120;8.764;2022-12-01T16:53:01;21.60;49.70
75049;DHT22;63803;53.120;8.764;2022-12-01T16:58:11;21.50;49.70
75049;DHT22;63803;53.120;8.764;2022-12-01T17:00:37;21.50;49.70
75049;DHT22;63803;53.120;8.764;2022-12-01T17:03:04;21.50;49.70
75049;DHT22;63803;53.120;8.764;2022-12-01T17:05:30;21.50;49.70
75049;DHT22;63803;53.120;8.764;2022-12-01T17:07:56;22.70;50.70
75049;DHT22;63803;53.120;8.764;2022-12-01T17:10:22;21.50;50.10
75049;DHT22;63803;53.120;8.764;2022-12-01T17:12:49;21.50;49.40
75049;DHT22;63803;53.120;8.764;2022-12-01T17:15:15;21.50;49.40
75049;DHT22;63803;53.120;8.764;2022-12-01T17:17:41;21.60;49.50
75049;DHT22;63803;53.120;8.764;2022-12-01T17:20:08;21.60;49.40
75049;DHT22;63803;53.120;8.764;2022-12-01T17:22:35;21.60;49.40
75049;DHT22;63803;53.120;8.764;2022-12-01T17:25:01;21.60;49.40
75049;DHT22;63803;53.120;8.764;2022-12-01T17:27:28;21.40;50.20
75049;DHT22;63803;53.120;8.764;2022-12-01T17:29:56;21.60;50.20
75049;DHT22;63803;53.120;8.764;2022-12-01T17:32:24;21.60;49.50
75049;DHT22;63803;53.120;8.764;2022-12-01T17:34:50;21.60;49.40
75049;DHT22;63803;53.120;8.764;2022-12-01T17:37:16;21.60;50.00
75049;DHT22;63803;53.120;8.764;2022-12-01T17:39:42;21.60;49.40
75049;DHT22;63803;53.120;8.764;2022-12-01T17:42:08;21.60;49.60
75049;DHT22;63803;53.120;8.764;2022-12-01T17:44:34;21.70;49.60
75049;DHT22;63803;53.120;8.764;2022-12-01T17:47:00;21.70;49.70
75049;DHT22;63803;53.120;8.764;2022-12-01T17:49:26;21.80;49.70
75049;DHT22;63803;53.120;8.764;2022-12-01T17:51:52;21.90;51.80
75049;DHT22;63803;53.120;8.764;2022-12-01T17:54:18;22.20;51.20
75049;DHT22;63803;53.120;8.764;2022-12-01T17:56:44;22.50;51.70
75049;DHT22;63803;53.120;8.764;2022-12-01T17:59:10;22.60;51.50
75049;DHT22;63803;53.120;8.764;2022-12-01T18:01:36;22.70;51.30
75049;DHT22;63803;53.120;8.764;2022-12-01T18:04:02;22.60;50.00
75049;DHT22;63803;53.120;8.764;2022-12-01T18:06:28;22.60;49.80
75049;DHT22;63803;53.120;8.764;2022-12-01T18:08:54;22.50;49.70
75049;DHT22;63803;53.120;8.764;2022-12-01T18:11:22;21.90;47.40
75049;DHT22;63803;53.120;8.764;2022-12-01T18:13:50;20.80;47.90
75049;DHT22;63803;53.120;8.764;2022-12-01T18:16:28;20.90;48.70
75049;DHT22;63803;53.120;8.764;2022-12-01T18:18:55;21.30;49.70
75049;DHT22;63803;53.120;8.764;2022-12-01T18:21:23;21.70;49.20
75049;DHT22;63803;53.120;8.764;2022-12-01T18:23:51;22.00;48.70
75049;DHT22;63803;53.120;8.764;2022-12-01T18:26:18;22.20;48.40
75049;DHT22;63803;53.120;8.764;2022-12-01T18:28:45;22.30;48.20
75049;DHT22;63803;53.120;8.764;2022-12-01T18:31:13;21.70;48.20
75049;DHT22;63803;53.120;8.764;2022-12-01T18:33:41;22.50;48.00
75049;DHT22;63803;53.120;8.764;2022-12-01T18:36:14;22.50;48.00